Time;durP1;ratioP1;P1;durP2;ratioP2;P2;SDS_P1;SDS_P2;PMS_P1;PMS_P2;Temp;Humidity;BMP_temperature;BMP_pressure;BME280_temperature;BME280_humidity;BME280_pressure;Samples;Min_cycle;Max_cycle;Signal;HPM_P1;HPM_P2
2022/12/24 00:00:20;;;;;;;41.75;9.25;;;;;;;7.81;100.00;97683.25;5105437;27;20392;-84
2022/12/24 00:02:45;;;;;;;34.72;9.73;;;;;;;7.90;100.00;97687.22;5102626;28;20162;-85
2022/12/24 00:05:12;;;;;;;34.75;7.55;;;;;;;8.00;100.00;97678.91;5105376;27;20022;-85
2022/12/24 00:07:38;;;;;;;41.75;6.97;;;;;;;8.06;100.00;97690.34;5123141;27;20074;-83
2022/12/24 00:10:04;;;;;;;37.80;7.30;;;;;;;8.10;100.00;97678.44;5122427;27;20385;-83
2022/12/24 00:12:30;;;;;;;31.50;6.05;;;;;;;8.07;100.00;97690.13;5120784;27;20039;-84
2022/12/24 00:14:56;;;;;;;40.22;8.00;;;;;;;7.92;100.00;97689.63;5122360;27;20081;-84
2022/12/24 00:17:22;;;;;;;31.23;6.95;;;;;;;7.91;100.00;97672.34;5123295;27;20030;-84
2022/12/24 00:19:48;;;;;;;35.22;7.22;;;;;;;7.89;100.00;97675.16;5124441;27;20034;-84
2022/12/24 00:22:14;;;;;;;37.92;7.85;;;;;;;7.88;100.00;97675.38;5125644;27;20110;-84
2022/12/24 00:24:40;;;;;;;37.17;7.15;;;;;;;7.95;100.00;97686.59;5106788;27;20042;-84
2022/12/24 00:27:05;;;;;;;38.95;9.00;;;;;;;7.94;100.00;97687.59;5104301;27;20537;-84
2022/12/24 00:29:31;;;;;;;47.08;7.75;;;;;;;8.05;100.00;97693.97;5122645;27;20039;-83
2022/12/24 00:31:58;;;;;;;48.63;8.48;;;;;;;8.08;100.00;97699.56;5102670;28;20031;-85
2022/12/24 00:34:25;;;;;;;30.40;6.68;;;;;;;8.19;100.00;97705.13;5117262;27;20054;-85
2022/12/24 00:36:51;;;;;;;49.15;7.28;;;;;;;8.13;100.00;97696.31;5121307;27;20107;-83
2022/12/24 00:39:17;;;;;;;46.70;6.88;;;;;;;8.35;100.00;97709.84;5120887;27;20077;-83
2022/12/24 00:41:43;;;;;;;32.38;7.05;;;;;;;8.19;100.00;97716.41;5121065;27;20027;-82
2022/12/24 00:44:09;;;;;;;33.40;6.65;;;;;;;8.44;100.00;97713.78;5123199;27;20134;-83
2022/12/24 00:46:37;;;;;;;44.90;7.45;;;;;;;8.69;100.00;97726.09;5122578;27;20385;-85
2022/12/24 00:49:05;;;;;;;46.63;7.35;;;;;;;8.74;100.00;97724.66;5106510;28;20024;-85
2022/12/24 00:51:32;;;;;;;53.05;7.97;;;;;;;8.80;100.00;97724.59;5119615;28;20477;-85
2022/12/24 00:53:59;;;;;;;45.38;7.07;;;;;;;8.62;100.00;97730.56;5121010;28;20401;-84
2022/12/24 00:56:25;;;;;;;35.47;6.93;;;;;;;8.84;100.00;97738.84;5119589;28;20019;-84
2022/12/24 00:58:51;;;;;;;44.33;7.28;;;;;;;8.77;100.00;97732.88;5121493;28;20503;-83
2022/12/24 01:01:18;;;;;;;32.45;5.90;;;;;;;9.09;100.00;97737.22;5121843;28;20023;-83
2022/12/24 01:03:43;;;;;;;41.00;6.68;;;;;;;8.93;100.00;97735.94;5120563;28;20023;-83
2022/12/24 01:06:15;;;;;;;36.95;6.55;;;;;;;9.12;100.00;97739.38;5119568;28;20028;-84
2022/12/24 01:08:42;;;;;;;38.17;8.25;;;;;;;9.12;100.00;97736.78;5126453;28;20465;-85
2022/12/24 01:11:09;;;;;;;23.30;6.95;;;;;;;9.27;100.00;97732.00;5123328;28;20429;-84
2022/12/24 01:13:35;;;;;;;31.42;6.10;;;;;;;9.06;100.00;97724.56;5123886;28;20031;-84
2022/12/24 01:16:00;;;;;;;29.65;6.15;;;;;;;9.19;100.00;97737.50;5123757;28;20034;-85
2022/12/24 01:18:26;;;;;;;34.90;5.95;;;;;;;9.13;100.00;97715.59;5120990;28;20031;-84
2022/12/24 01:21:00;;;;;;;29.90;6.32;;;;;;;9.09;100.00;97721.50;5104251;28;20128;-83
2022/12/24 01:23:26;;;;;;;19.00;3.92;;;;;;;9.26;100.00;97712.06;5121489;28;20377;-83
2022/12/24 01:25:51;;;;;;;17.02;4.93;;;;;;;9.10;100.00;97728.34;5108071;27;20501;-84
2022/12/24 01:28:17;;;;;;;20.52;4.97;;;;;;;8.99;100.00;97733.25;5126512;27;20043;-85
2022/12/24 01:30:43;;;;;;;21.88;5.55;;;;;;;9.00;100.00;97719.16;5107138;28;20043;-87
2022/12/24 01:33:11;;;;;;;9.52;3.30;;;;;;;8.72;100.00;97732.69;5125812;27;20035;-84
2022/12/24 01:35:39;;;;;;;9.48;2.67;;;;;;;8.94;100.00;97729.69;5108985;27;20035;-84
2022/12/24 01:38:05;;;;;;;9.30;2.58;;;;;;;8.59;100.00;97740.69;5110196;27;20453;-84
2022/12/24 01:43:23;;;;;;;16.45;3.22;;;;;;;8.54;100.00;97717.78;5108881;27;20031;-85
2022/12/24 01:45:50;;;;;;;8.95;3.13;;;;;;;8.75;100.00;97745.38;5125321;27;20030;-85
2022/12/24 01:48:39;;;;;;;16.23;2.85;;;;;;;8.59;100.00;97740.69;5124982;27;20092;-85
2022/12/24 01:51:28;;;;;;;10.52;3.72;;;;;;;8.71;100.00;97755.47;5121591;27;20068;-84
2022/12/24 01:54:04;;;;;;;12.35;3.40;;;;;;;8.48;100.00;97744.75;5123274;27;20035;-85
2022/12/24 01:56:31;;;;;;;15.93;3.05;;;;;;;8.66;100.00;97742.22;5107719;27;20118;-84
2022/12/24 01:59:04;;;;;;;11.27;3.05;;;;;;;8.57;100.00;97740.88;5126139;27;20027;-86
2022/12/24 02:01:31;;;;;;;15.52;4.05;;;;;;;8.62;100.00;97733.19;5126088;27;20027;-85
2022/12/24 02:03:57;;;;;;;11.27;3.20;;;;;;;8.82;100.00;97745.28;5128851;27;20027;-85
2022/12/24 02:06:23;;;;;;;21.58;4.43;;;;;;;8.53;100.00;97745.72;5101164;27;20076;-85
2022/12/24 02:08:48;;;;;;;17.58;4.70;;;;;;;8.56;100.00;97741.91;5106382;28;20031;-85
2022/12/24 02:11:18;;;;;;;16.13;4.07;;;;;;;8.86;100.00;97736.03;5126577;27;20027;-85
2022/12/24 02:13:53;;;;;;;21.15;4.70;;;;;;;8.73;100.00;97743.97;5108083;27;20034;-85
2022/12/24 02:16:27;;;;;;;11.45;3.53;;;;;;;8.80;100.00;97736.88;5112291;27;20479;-85
2022/12/24 02:19:04;;;;;;;22.83;4.93;;;;;;;8.94;100.00;97748.00;5120812;27;20027;-85
2022/12/24 02:21:43;;;;;;;18.25;4.78;;;;;;;8.80;100.00;97750.75;5106147;27;20117;-85
2022/12/24 02:24:38;;;;;;;21.10;5.35;;;;;;;8.73;100.00;97752.63;5125931;27;20058;-86
2022/12/24 02:27:26;;;;;;;18.10;4.85;;;;;;;8.90;100.00;97760.75;5107937;27;20142;-84
2022/12/24 02:30:05;;;;;;;25.88;6.60;;;;;;;8.54;100.00;97772.69;5110971;27;20062;-84
2022/12/24 02:32:38;;;;;;;26.30;6.50;;;;;;;8.54;100.00;97749.16;5125683;27;20035;-83
2022/12/24 02:35:10;;;;;;;24.42;6.20;;;;;;;8.98;100.00;97773.53;5124535;27;20027;-85
2022/12/24 02:38:18;;;;;;;22.80;5.72;;;;;;;8.82;100.00;97766.22;5103393;28;20031;-82
2022/12/24 02:40:51;;;;;;;28.05;6.40;;;;;;;8.84;100.00;97762.38;5088519;27;20107;-85
2022/12/24 02:43:23;;;;;;;25.90;6.00;;;;;;;9.06;100.00;97777.69;5119388;27;20098;-83
2022/12/24 02:46:05;;;;;;;21.40;6.25;;;;;;;8.91;100.00;97770.19;5129143;27;20023;-84
2022/12/24 02:48:31;;;;;;;25.85;6.35;;;;;;;8.92;100.00;97774.41;5131075;27;20057;-84
2022/12/24 02:51:05;;;;;;;23.35;5.95;;;;;;;8.64;100.00;97765.16;5113542;27;20492;-84
2022/12/24 02:53:31;;;;;;;25.52;5.55;;;;;;;8.95;100.00;97771.34;5121733;27;20034;-85
2022/12/24 02:56:13;;;;;;;26.08;6.28;;;;;;;9.00;100.00;97774.13;5126283;27;20038;-83
2022/12/24 02:59:11;;;;;;;23.10;5.60;;;;;;;8.90;100.00;97768.59;5136195;27;20035;-83
2022/12/24 03:02:01;;;;;;;20.15;5.10;;;;;;;9.12;100.00;97779.44;5057203;27;20039;-82
2022/12/24 03:04:38;;;;;;;24.10;5.97;;;;;;;8.92;100.00;97777.03;5127758;27;20031;-83
2022/12/24 03:07:30;;;;;;;29.17;5.68;;;;;;;8.95;100.00;97781.03;5125102;27;20077;-82
2022/12/24 03:10:13;;;;;;;29.23;5.97;;;;;;;8.79;100.00;97788.41;5122535;27;20042;-84
2022/12/24 03:12:46;;;;;;;23.77;5.40;;;;;;;8.82;100.00;97790.59;5107050;27;20481;-84
2022/12/24 03:15:16;;;;;;;22.10;5.47;;;;;;;8.96;100.00;97791.28;5130078;27;20042;-83
2022/12/24 03:17:46;;;;;;;18.10;5.90;;;;;;;8.85;100.00;97797.22;5125328;27;20358;-83
2022/12/24 03:20:18;;;;;;;18.08;4.50;;;;;;;9.12;100.00;97807.44;5124365;27;20110;-83
2022/12/24 03:22:44;;;;;;;20.83;4.22;;;;;;;8.98;100.00;97796.31;5124062;27;20088;-83
2022/12/24 03:25:09;;;;;;;13.60;4.00;;;;;;;8.98;100.00;97804.94;5121213;27;20031;-83
2022/12/24 03:27:37;;;;;;;16.83;3.60;;;;;;;9.10;100.00;97796.41;5122901;27;20445;-83
2022/12/24 03:30:09;;;;;;;10.77;3.40;;;;;;;8.97;100.00;97805.19;5123430;27;20404;-82
2022/12/24 03:32:36;;;;;;;10.90;3.22;;;;;;;9.31;100.00;97820.56;5086289;27;20088;-84
2022/12/24 03:35:01;;;;;;;12.55;3.63;;;;;;;9.21;100.00;97821.06;5123902;27;20031;-83
2022/12/24 03:37:27;;;;;;;14.45;3.40;;;;;;;9.16;100.00;97819.09;5124053;27;20526;-84
2022/12/24 03:39:53;;;;;;;13.45;3.45;;;;;;;9.14;100.00;97803.63;5122403;27;20031;-84
2022/12/24 03:42:18;;;;;;;11.80;3.25;;;;;;;8.82;100.00;97806.28;5106353;27;20471;-83
2022/12/24 03:44:44;;;;;;;11.85;2.90;;;;;;;8.96;100.00;97799.13;5121782;27;20089;-84
2022/12/24 03:47:09;;;;;;;13.05;2.67;;;;;;;9.04;100.00;97805.09;5125981;27;20031;-84
2022/12/24 03:49:35;;;;;;;13.65;3.03;;;;;;;9.02;100.00;97812.38;5125221;27;20427;-83
2022/12/24 03:52:01;;;;;;;10.50;3.95;;;;;;;8.86;100.00;97814.53;5123023;27;20102;-84
2022/12/24 03:54:26;;;;;;;13.18;2.80;;;;;;;8.89;100.00;97808.84;5121199;27;20024;-84
2022/12/24 03:56:52;;;;;;;9.77;1.95;;;;;;;8.67;100.00;97819.69;5122971;27;20069;-84
2022/12/24 03:59:17;;;;;;;14.88;2.60;;;;;;;8.79;100.00;97819.00;5090958;27;20058;-85
2022/12/24 04:01:43;;;;;;;6.32;2.30;;;;;;;9.02;100.00;97823.66;5121905;27;20524;-84
2022/12/24 04:04:08;;;;;;;13.18;2.40;;;;;;;8.64;100.00;97814.84;5122520;27;20030;-83
2022/12/24 04:06:34;;;;;;;11.05;2.60;;;;;;;8.99;100.00;97839.78;5128060;27;20042;-84
2022/12/24 04:09:03;;;;;;;12.85;2.50;;;;;;;8.64;100.00;97848.06;5124435;27;20027;-85
2022/12/24 04:11:29;;;;;;;12.25;3.22;;;;;;;9.06;100.00;97832.66;5124927;27;20031;-84
2022/12/24 04:13:55;;;;;;;17.50;2.15;;;;;;;8.74;100.00;97852.84;5126369;27;20384;-85
2022/12/24 04:16:20;;;;;;;12.30;2.10;;;;;;;8.88;100.00;97848.31;5121259;27;20034;-85
2022/12/24 04:18:46;;;;;;;5.78;2.25;;;;;;;9.14;100.00;97848.13;5124362;27;20027;-85
2022/12/24 04:21:12;;;;;;;16.50;3.20;;;;;;;9.13;100.00;97845.69;5141520;27;20027;-84
2022/12/24 04:23:39;;;;;;;8.45;2.25;;;;;;;9.18;100.00;97877.28;5105321;27;20434;-83
2022/12/24 04:26:07;;;;;;;16.60;4.22;;;;;;;9.00;100.00;97846.63;5126647;27;20118;-83
2022/12/24 04:28:33;;;;;;;13.00;3.03;;;;;;;8.71;100.00;97860.09;5105916;27;20050;-83
2022/12/24 04:31:00;;;;;;;10.60;3.22;;;;;;;8.81;100.00;97869.28;5124355;27;20438;-84
2022/12/24 04:33:25;;;;;;;13.00;3.65;;;;;;;8.88;100.00;97869.25;5121479;27;20396;-84
2022/12/24 04:35:51;;;;;;;11.93;3.00;;;;;;;8.95;100.00;97862.94;5124840;27;20134;-84
2022/12/24 04:38:17;;;;;;;14.63;2.70;;;;;;;8.82;100.00;97866.47;5119015;27;20066;-82
2022/12/24 04:40:43;;;;;;;10.40;2.83;;;;;;;8.86;100.00;97875.50;5121031;27;20024;-83
2022/12/24 04:43:08;;;;;;;18.52;3.97;;;;;;;8.93;100.00;97878.06;5091596;28;20031;-83
2022/12/24 04:45:34;;;;;;;8.18;3.58;;;;;;;8.78;100.00;97888.84;5121833;27;20030;-81
2022/12/24 04:48:00;;;;;;;15.25;3.33;;;;;;;9.02;100.00;97880.41;5127754;27;20115;-84
2022/12/24 04:50:25;;;;;;;9.25;3.60;;;;;;;8.76;100.00;97883.03;5125712;27;20473;-82
2022/12/24 04:52:51;;;;;;;18.58;3.85;;;;;;;8.59;100.00;97871.47;5102609;28;20073;-85
2022/12/24 04:55:16;;;;;;;13.23;4.55;;;;;;;8.55;100.00;97876.28;5127086;28;20035;-83
2022/12/24 04:57:42;;;;;;;11.68;4.00;;;;;;;8.58;100.00;97886.34;5121046;28;20034;-84
2022/12/24 05:00:09;;;;;;;13.85;4.15;;;;;;;8.73;100.00;97898.34;5101939;28;20028;-83
2022/12/24 05:02:34;;;;;;;13.50;3.88;;;;;;;8.44;100.00;97904.66;5126137;27;20033;-83
2022/12/24 05:05:00;;;;;;;17.92;5.32;;;;;;;8.37;100.00;97896.06;5126590;27;20035;-83
2022/12/24 05:07:25;;;;;;;13.25;3.55;;;;;;;8.65;100.00;97894.16;5127744;27;20032;-84
2022/12/24 05:09:51;;;;;;;21.02;3.88;;;;;;;8.59;100.00;97913.31;5107042;27;20038;-83
2022/12/24 05:12:16;;;;;;;10.00;2.75;;;;;;;8.26;100.00;97909.81;5127647;27;20110;-84
2022/12/24 05:14:42;;;;;;;14.10;2.72;;;;;;;8.44;100.00;97907.28;5128927;27;20110;-83
2022/12/24 05:17:08;;;;;;;16.50;2.67;;;;;;;8.48;100.00;97891.19;5105220;27;20118;-84
2022/12/24 05:19:33;;;;;;;14.77;2.97;;;;;;;8.21;100.00;97913.03;5105794;27;20521;-84
2022/12/24 05:27:27;;;;;;;9.98;2.47;;;;;;;8.42;100.00;97919.78;5110381;27;20027;-84
2022/12/24 05:29:53;;;;;;;13.52;2.90;;;;;;;8.23;100.00;97925.88;5127729;27;20047;-84
2022/12/24 05:32:19;;;;;;;19.55;4.90;;;;;;;8.05;100.00;97929.16;5125736;27;20027;-83
2022/12/24 05:34:45;;;;;;;13.65;3.08;;;;;;;7.96;100.00;97912.91;5093723;27;20039;-83
2022/12/24 05:37:10;;;;;;;14.52;3.60;;;;;;;8.03;100.00;97915.50;5123715;27;20032;-85
2022/12/24 05:39:36;;;;;;;19.73;2.95;;;;;;;7.94;100.00;97934.00;5127047;27;20034;-85
2022/12/24 05:42:02;;;;;;;9.40;2.30;;;;;;;8.23;100.00;97924.09;5109379;27;20054;-82
2022/12/24 05:44:27;;;;;;;13.30;2.50;;;;;;;8.24;100.00;97917.03;5128306;27;20072;-83
2022/12/24 05:46:53;;;;;;;17.27;3.75;;;;;;;8.00;100.00;97935.00;5123337;27;20051;-83
2022/12/24 05:49:18;;;;;;;23.88;3.65;;;;;;;8.02;100.00;97940.81;5124000;27;20422;-83
2022/12/24 05:51:44;;;;;;;13.00;3.22;;;;;;;8.17;100.00;97947.63;5128592;27;20118;-84
2022/12/24 05:54:10;;;;;;;26.30;3.97;;;;;;;8.15;100.00;97945.19;5130381;27;20047;-82
2022/12/24 05:56:35;;;;;;;15.00;3.13;;;;;;;8.12;100.00;97950.84;5132211;27;20510;-83
2022/12/24 05:59:01;;;;;;;14.75;2.80;;;;;;;8.13;100.00;97952.44;5129325;27;20433;-83
2022/12/24 06:01:27;;;;;;;14.88;3.10;;;;;;;7.89;100.00;97952.09;5112262;27;20031;-82
2022/12/24 06:03:52;;;;;;;15.15;2.80;;;;;;;7.89;100.00;97952.09;5132693;27;20027;-82
2022/12/24 06:06:25;;;;;;;13.35;3.00;;;;;;;7.97;100.00;97956.31;5122613;27;20036;-82
2022/12/24 06:08:52;;;;;;;17.35;3.20;;;;;;;7.88;100.00;97973.22;5127955;27;20023;-84
2022/12/24 06:11:23;;;;;;;10.70;2.92;;;;;;;7.84;100.00;97975.44;5127884;27;20027;-85
2022/12/24 06:13:51;;;;;;;11.77;2.70;;;;;;;7.73;100.00;97984.69;5110196;28;20393;-85
2022/12/24 06:16:18;;;;;;;18.23;3.20;;;;;;;7.65;100.00;97987.50;5130159;27;20541;-83
2022/12/24 06:18:45;;;;;;;15.63;2.70;;;;;;;7.62;100.00;97972.22;5104329;27;20102;-84
2022/12/24 06:21:11;;;;;;;11.68;3.45;;;;;;;7.60;100.00;97997.75;5106746;27;20126;-84
2022/12/24 06:23:40;;;;;;;13.98;2.88;;;;;;;7.31;100.00;97986.69;5109502;27;20023;-85
2022/12/24 06:26:10;;;;;;;12.82;2.67;;;;;;;7.35;100.00;97998.34;5125592;27;20690;-85
2022/12/24 06:28:36;;;;;;;17.38;3.20;;;;;;;7.31;100.00;97994.53;5110003;27;20376;-85
2022/12/24 06:31:04;;;;;;;11.10;2.70;;;;;;;7.27;100.00;98002.75;5105612;27;20059;-84
2022/12/24 06:33:31;;;;;;;16.50;2.30;;;;;;;7.20;100.00;98011.56;5128047;27;20031;-85
2022/12/24 06:35:58;;;;;;;11.73;2.88;;;;;;;7.00;100.00;98014.94;5108400;27;20492;-86
2022/12/24 06:38:24;;;;;;;9.98;2.55;;;;;;;6.96;100.00;98024.94;5107657;27;20060;-85
2022/12/24 06:40:50;;;;;;;10.88;2.55;;;;;;;6.88;100.00;98017.31;5126822;27;20484;-85
2022/12/24 06:43:15;;;;;;;18.20;3.22;;;;;;;6.88;100.00;98019.91;5125628;27;20389;-85
2022/12/24 06:45:46;;;;;;;7.72;2.92;;;;;;;6.77;100.00;98013.44;5127707;27;20428;-85
2022/12/24 06:48:12;;;;;;;12.18;3.65;;;;;;;6.60;100.00;98020.81;5124650;27;20480;-84
2022/12/24 06:50:38;;;;;;;14.70;4.03;;;;;;;6.52;100.00;98023.59;5126970;27;20027;-84
2022/12/24 06:53:03;;;;;;;15.57;6.75;;;;;;;6.67;100.00;98039.88;5123781;27;20479;-85
2022/12/24 06:55:29;;;;;;;17.95;6.80;;;;;;;6.53;100.00;98038.22;5123331;27;20043;-85
2022/12/24 06:57:54;;;;;;;17.02;6.60;;;;;;;6.54;100.00;98039.84;5106722;27;20019;-84
2022/12/24 07:00:23;;;;;;;17.63;6.22;;;;;;;6.48;100.00;98045.78;5123823;27;20034;-84
2022/12/24 07:02:48;;;;;;;17.70;4.68;;;;;;;6.40;100.00;98044.19;5119477;27;20031;-85
2022/12/24 07:05:14;;;;;;;21.13;5.72;;;;;;;6.51;100.00;98059.25;5124221;27;20098;-84
2022/12/24 07:07:42;;;;;;;19.38;4.13;;;;;;;6.59;100.00;98058.31;5125476;27;20039;-83
2022/12/24 07:10:11;;;;;;;15.35;3.83;;;;;;;6.57;100.00;98052.47;5105809;27;20027;-86
2022/12/24 07:12:37;;;;;;;11.52;3.58;;;;;;;6.50;100.00;98051.66;5122304;27;20465;-85
2022/12/24 07:15:03;;;;;;;20.65;4.30;;;;;;;6.42;100.00;98048.19;5123984;27;20051;-84
2022/12/24 07:17:29;;;;;;;17.48;6.10;;;;;;;6.47;100.00;98067.66;5119190;27;20077;-86
2022/12/24 07:19:54;;;;;;;16.27;3.38;;;;;;;6.41;100.00;98064.03;5121165;27;20424;-84
2022/12/24 07:22:20;;;;;;;13.65;3.20;;;;;;;6.35;100.00;98073.41;5105638;27;20026;-85
2022/12/24 07:24:45;;;;;;;12.43;6.05;;;;;;;6.27;100.00;98060.50;5124654;27;20023;-85
2022/12/24 07:27:11;;;;;;;20.25;7.38;;;;;;;6.39;100.00;98074.63;5124601;27;20114;-87
2022/12/24 07:29:37;;;;;;;19.92;4.03;;;;;;;6.45;100.00;98077.47;5127363;27;20072;-86
2022/12/24 07:32:02;;;;;;;17.45;4.72;;;;;;;6.52;100.00;98075.72;5104737;27;20030;-85
2022/12/24 07:34:28;;;;;;;16.30;4.43;;;;;;;6.38;100.00;98091.28;5108424;27;20031;-86
2022/12/24 07:36:53;;;;;;;16.95;4.40;;;;;;;6.57;100.00;98079.34;5123168;27;20031;-87
2022/12/24 07:39:19;;;;;;;18.63;4.15;;;;;;;6.65;100.00;98083.59;5106025;28;20031;-88
2022/12/24 07:41:45;;;;;;;25.20;5.35;;;;;;;6.58;100.00;98074.94;5101256;27;20035;-86
2022/12/24 07:44:14;;;;;;;20.25;4.88;;;;;;;6.80;100.00;98093.09;5104987;27;20361;-86
2022/12/24 07:46:39;;;;;;;13.32;4.78;;;;;;;6.60;100.00;98077.38;5123710;27;20043;-88
2022/12/24 07:49:05;;;;;;;23.23;4.93;;;;;;;6.67;100.00;98099.84;5126481;27;20398;-88
2022/12/24 07:51:31;;;;;;;18.35;6.45;;;;;;;6.65;100.00;98081.00;5105734;27;20027;-87
2022/12/24 07:53:57;;;;;;;20.95;5.65;;;;;;;6.66;100.00;98100.06;5121944;27;20027;-89
2022/12/24 07:56:23;;;;;;;18.60;6.63;;;;;;;6.70;100.00;98096.06;5106925;27;20027;-88
2022/12/24 07:58:51;;;;;;;17.27;5.75;;;;;;;6.86;100.00;98102.75;5110166;27;20055;-88
2022/12/24 08:01:18;;;;;;;19.38;4.68;;;;;;;6.80;100.00;98096.53;5104242;27;20027;-88
2022/12/24 08:03:44;;;;;;;12.95;4.20;;;;;;;6.98;100.00;98118.69;5108413;27;20363;-88
2022/12/24 08:06:09;;;;;;;17.02;4.28;;;;;;;6.82;100.00;98093.72;5106072;27;20027;-89
2022/12/24 08:08:36;;;;;;;12.48;4.05;;;;;;;7.05;100.00;98118.69;5106850;27;20059;-87
2022/12/24 08:11:05;;;;;;;20.77;5.05;;;;;;;7.07;100.00;98120.13;5120351;27;20050;-86
2022/12/24 08:13:31;;;;;;;20.73;5.43;;;;;;;7.15;100.00;98100.88;5104255;27;20164;-85
2022/12/24 08:15:58;;;;;;;20.08;5.07;;;;;;;7.10;100.00;98113.72;5103446;27;20019;-86
2022/12/24 08:18:24;;;;;;;24.88;6.60;;;;;;;7.21;100.00;98117.59;5123437;27;20434;-86
2022/12/24 08:20:50;;;;;;;15.70;4.93;;;;;;;7.07;100.00;98121.91;5088172;27;20524;-86
2022/12/24 08:23:16;;;;;;;18.70;6.18;;;;;;;6.90;100.00;98096.19;5109234;28;20035;-87
2022/12/24 08:25:43;;;;;;;20.38;5.85;;;;;;;7.08;100.00;98113.13;5104134;27;20911;-86
2022/12/24 08:28:10;;;;;;;23.77;5.88;;;;;;;7.26;100.00;98134.25;5126270;27;20024;-87
2022/12/24 08:30:36;;;;;;;29.00;7.70;;;;;;;7.31;100.00;98132.88;5088387;27;20040;-87
2022/12/24 08:33:02;;;;;;;24.70;8.30;;;;;;;7.29;100.00;98120.81;5124169;27;20080;-88
2022/12/24 08:35:29;;;;;;;20.52;6.72;;;;;;;7.34;100.00;98122.03;5124736;27;20480;-83
2022/12/24 08:37:55;;;;;;;29.02;7.15;;;;;;;7.47;100.00;98127.31;5123013;27;20023;-85
2022/12/24 08:40:21;;;;;;;25.17;8.95;;;;;;;7.54;100.00;98138.56;5118088;27;20031;-86
2022/12/24 08:42:47;;;;;;;27.80;8.52;;;;;;;7.74;100.00;98137.00;5120295;27;20034;-85
2022/12/24 08:45:14;;;;;;;19.60;6.65;;;;;;;7.76;100.00;98132.38;5121217;27;20055;-84
2022/12/24 08:47:41;;;;;;;26.38;7.28;;;;;;;7.82;100.00;98148.06;5125007;27;20419;-85
2022/12/24 08:50:08;;;;;;;36.78;7.82;;;;;;;7.89;100.00;98144.66;5125037;28;20072;-84
2022/12/24 08:52:34;;;;;;;29.23;7.32;;;;;;;7.84;100.00;98145.25;5108084;28;20059;-86
2022/12/24 08:55:00;;;;;;;21.42;6.50;;;;;;;7.83;100.00;98148.88;5104087;28;20470;-86
2022/12/24 08:57:28;;;;;;;20.30;6.07;;;;;;;7.80;100.00;98150.06;5123397;28;20059;-85
2022/12/24 08:59:54;;;;;;;23.15;7.05;;;;;;;7.59;100.00;98143.22;5123175;28;20114;-84
2022/12/24 09:02:20;;;;;;;61.05;18.58;;;;;;;7.63;100.00;98146.22;5121747;28;20106;-85
2022/12/24 09:04:45;;;;;;;68.75;20.77;;;;;;;7.65;100.00;98157.25;5104596;28;20083;-87
2022/12/24 09:07:11;;;;;;;51.38;17.42;;;;;;;7.62;100.00;98165.50;5121874;28;20028;-86
2022/12/24 09:09:38;;;;;;;57.40;19.02;;;;;;;7.53;100.00;98167.47;5121718;28;20155;-86
2022/12/24 09:12:07;;;;;;;80.22;26.48;;;;;;;7.32;100.00;98156.16;5119960;28;20119;-87
2022/12/24 09:14:33;;;;;;;50.55;18.98;;;;;;;7.50;100.00;98163.47;5105236;28;20024;-80
2022/12/24 09:16:59;;;;;;;45.28;14.82;;;;;;;7.26;100.00;98146.50;5123674;28;20480;-83
2022/12/24 09:19:26;;;;;;;43.92;15.93;;;;;;;7.33;100.00;98155.16;5121377;28;20031;-84
2022/12/24 09:21:52;;;;;;;41.85;14.70;;;;;;;7.43;100.00;98178.28;5121804;28;20031;-84
2022/12/24 09:24:18;;;;;;;38.78;10.00;;;;;;;7.27;100.00;98164.59;5123693;28;20027;-84
2022/12/24 09:26:44;;;;;;;23.10;8.23;;;;;;;7.50;100.00;98168.69;5120810;28;20035;-83
2022/12/24 09:29:10;;;;;;;17.80;5.60;;;;;;;7.44;100.00;98166.84;5121131;28;20511;-82
2022/12/24 09:31:36;;;;;;;26.05;5.45;;;;;;;7.58;100.00;98193.84;5140763;27;20044;-83
2022/12/24 09:34:01;;;;;;;32.08;5.63;;;;;;;7.60;100.00;98175.34;5100064;28;20031;-83
2022/12/24 09:36:27;;;;;;;29.25;4.95;;;;;;;7.70;100.00;98175.78;5122215;28;20019;-82
2022/12/24 09:38:52;;;;;;;23.80;4.65;;;;;;;7.74;100.00;98161.31;5101121;28;20038;-83
2022/12/24 09:41:39;;;;;;;19.55;4.53;;;;;;;8.17;100.00;98190.72;5101249;28;20131;-84
2022/12/24 09:44:19;;;;;;;24.48;5.72;;;;;;;8.29;100.00;98181.28;5117898;28;20457;-86
2022/12/24 09:46:48;;;;;;;28.17;6.35;;;;;;;8.25;100.00;98165.19;5123876;27;20031;-84
2022/12/24 09:49:19;;;;;;;19.48;4.68;;;;;;;8.51;100.00;98188.97;5124186;27;20051;-84
2022/12/24 09:52:08;;;;;;;37.33;4.40;;;;;;;8.67;100.00;98191.19;5142578;27;20031;-84
2022/12/24 09:54:39;;;;;;;30.85;4.90;;;;;;;8.71;100.00;98168.81;5110464;27;20046;-83
2022/12/24 09:57:19;;;;;;;23.90;5.05;;;;;;;9.06;100.00;98198.34;5124441;27;20487;-82
2022/12/24 09:59:46;;;;;;;22.35;4.40;;;;;;;8.91;100.00;98175.84;5124118;27;20091;-84
2022/12/24 10:02:17;;;;;;;17.58;3.65;;;;;;;9.31;100.00;98200.28;5104158;27;20080;-83
2022/12/24 10:04:45;;;;;;;30.27;5.75;;;;;;;9.32;100.00;98191.41;5125174;27;20050;-83
2022/12/24 10:07:10;;;;;;;26.60;4.95;;;;;;;9.41;100.00;98203.25;5110144;27;20063;-84
2022/12/24 10:09:39;;;;;;;23.40;5.50;;;;;;;9.41;100.00;98198.03;5130322;27;20118;-85
2022/12/24 10:12:13;;;;;;;23.63;4.05;;;;;;;9.41;100.00;98183.13;5109385;27;20034;-83
2022/12/24 10:15:24;;;;;;;22.05;5.32;;;;;;;9.63;100.00;98213.44;5106929;27;20046;-82
2022/12/24 10:18:21;;;;;;;29.48;5.65;;;;;;;9.82;100.00;98215.16;5107760;27;20043;-82
2022/12/24 10:21:13;;;;;;;20.90;4.80;;;;;;;9.83;100.00;98206.31;5125188;27;20056;-83
2022/12/24 10:24:16;;;;;;;23.40;4.63;;;;;;;10.00;100.00;98219.72;5104252;28;20161;-85
2022/12/24 10:26:51;;;;;;;24.40;4.57;;;;;;;9.88;100.00;98197.00;5108337;27;20485;-83
2022/12/24 10:29:39;;;;;;;24.83;4.60;;;;;;;10.07;100.00;98224.94;5123164;27;20079;-84
2022/12/24 10:32:07;;;;;;;19.83;3.70;;;;;;;10.20;100.00;98224.03;5135856;27;20507;-82
2022/12/24 10:34:56;;;;;;;22.27;4.45;;;;;;;10.14;100.00;98207.31;5101553;27;20044;-83
2022/12/24 10:37:24;;;;;;;23.17;4.75;;;;;;;10.28;100.00;98215.13;5121700;27;20042;-84
2022/12/24 10:39:51;;;;;;;18.08;4.32;;;;;;;10.40;100.00;98229.16;5125509;27;20504;-83
2022/12/24 10:42:17;;;;;;;18.30;4.53;;;;;;;10.32;100.00;98218.91;5123659;27;20044;-86
2022/12/24 10:44:49;;;;;;;24.67;3.97;;;;;;;10.27;100.00;98201.19;5120573;27;20068;-85
2022/12/24 10:47:18;;;;;;;22.30;4.00;;;;;;;10.23;100.00;98220.19;5126489;27;20038;-84
2022/12/24 10:49:47;;;;;;;23.65;4.40;;;;;;;10.04;100.00;98207.00;5138996;27;20031;-86
2022/12/24 10:52:18;;;;;;;18.30;4.47;;;;;;;10.14;100.00;98227.50;5106213;27;20485;-84
2022/12/24 10:55:10;;;;;;;21.30;3.70;;;;;;;9.78;100.00;98234.94;5104562;27;20054;-85
2022/12/24 10:57:39;;;;;;;26.17;5.45;;;;;;;9.70;100.00;98233.38;5121870;27;20020;-85
2022/12/24 11:00:07;;;;;;;12.13;4.00;;;;;;;9.59;100.00;98236.66;5124144;27;20106;-82
2022/12/24 11:02:36;;;;;;;30.33;5.13;;;;;;;9.21;100.00;98237.38;5105613;27;20484;-84
2022/12/24 11:05:25;;;;;;;18.48;4.53;;;;;;;9.25;100.00;98239.41;5107073;27;20034;-83
2022/12/24 11:08:05;;;;;;;17.70;4.60;;;;;;;9.43;100.00;98241.34;5118610;27;20051;-82
2022/12/24 11:10:34;;;;;;;21.90;4.50;;;;;;;9.54;100.00;98228.63;5125903;27;20027;-83
2022/12/24 11:13:00;;;;;;;21.83;5.70;;;;;;;9.70;100.00;98237.81;5135425;27;20031;-82
2022/12/24 11:15:33;;;;;;;25.23;5.57;;;;;;;9.71;100.00;98234.97;5104534;27;20110;-82
2022/12/24 11:18:13;;;;;;;18.85;4.38;;;;;;;9.75;100.00;98221.47;5107625;27;20034;-84
2022/12/24 11:20:39;;;;;;;20.17;4.57;;;;;;;9.52;100.00;98230.63;5084579;28;20074;-85
2022/12/24 11:23:06;;;;;;;23.40;3.95;;;;;;;9.30;100.00;98215.19;5098869;28;20437;-84
2022/12/24 11:25:36;;;;;;;29.08;4.75;;;;;;;9.09;100.00;98221.50;5114533;27;20034;-84
2022/12/24 11:28:36;;;;;;;16.73;4.35;;;;;;;9.33;100.00;98216.59;5109472;27;20040;-84
2022/12/24 11:31:24;;;;;;;27.65;5.05;;;;;;;9.39;100.00;98202.66;5110416;27;20092;-85
2022/12/24 11:33:54;;;;;;;17.40;4.78;;;;;;;9.21;100.00;98190.25;5121947;27;20434;-85
2022/12/24 11:36:22;;;;;;;18.80;4.22;;;;;;;9.36;100.00;98208.31;5101114;27;20042;-84
2022/12/24 11:38:54;;;;;;;18.65;4.82;;;;;;;9.26;100.00;98206.13;5121398;27;20118;-84
2022/12/24 11:41:20;;;;;;;22.77;4.70;;;;;;;9.18;100.00;98216.84;5092816;28;20036;-86